Time;durP1;ratioP1;P1;durP2;ratioP2;P2;SDS_P1;SDS_P2;PMS_P1;PMS_P2;Temp;Humidity;BMP_temperature;BMP_pressure;BME280_temperature;BME280_humidity;BME280_pressure;Samples;Min_cycle;Max_cycle;Signal;HPM_P1;HPM_P2
2022/03/25 00:00:22;;;;;;;4.20;2.03;;;2.70;1.40;;;3.35;96.16;96236.76;647660;216;31555;-76
2022/03/25 00:03:10;;;;;;;2.37;2.17;;;2.70;1.40;;;3.32;96.36;96234.84;645810;212;31609;-76
2022/03/25 00:05:56;;;;;;;5.35;3.85;;;2.70;1.40;;;3.32;96.16;96234.00;648597;216;31884;-77
2022/03/25 00:08:38;;;;;;;2.97;1.95;;;2.70;1.40;;;3.27;96.81;96233.47;647223;216;31610;-77
2022/03/25 00:11:20;;;;;;;2.62;2.33;;;2.60;1.40;;;3.26;96.96;96233.28;647208;216;31748;-76
2022/03/25 00:14:02;;;;;;;3.60;2.65;;;2.50;1.40;;;3.22;97.62;96235.58;646729;212;31566;-77
2022/03/25 00:16:43;;;;;;;3.00;2.30;;;2.50;1.40;;;3.20;98.56;96233.70;647367;212;31573;-77
2022/03/25 00:19:25;;;;;;;4.80;3.10;;;2.50;1.40;;;3.16;97.60;96236.91;647095;216;31681;-77
2022/03/25 00:22:07;;;;;;;3.85;2.97;;;2.40;1.40;;;3.16;97.26;96234.34;646762;212;32153;-77
2022/03/25 00:27:25;;;;;;;4.37;2.95;;;2.40;1.40;;;3.07;97.55;96232.08;646328;216;31589;-77
2022/03/25 00:30:08;;;;;;;4.00;2.70;;;2.30;1.40;;;2.97;96.55;96228.80;646883;212;31530;-77
2022/03/25 00:32:50;;;;;;;3.90;2.08;;;2.10;1.40;;;2.94;98.03;96231.38;647398;213;31548;-77
2022/03/25 00:35:51;;;;;;;2.42;2.22;;;2.10;1.40;;;2.87;99.78;96227.70;648009;216;31643;-77
2022/03/25 00:38:33;;;;;;;2.00;1.77;;;2.10;1.40;;;2.86;99.96;96224.37;647616;212;31610;-77
2022/03/25 00:41:16;;;;;;;3.10;2.10;;;2.10;1.40;;;2.85;100.00;96217.33;645950;212;43082;-76
2022/03/25 00:43:59;;;;;;;2.43;2.10;;;2.10;1.40;;;2.71;100.00;96217.22;620599;222;32923;-77
2022/03/25 00:46:42;;;;;;;4.20;1.92;;;2.00;1.40;;;2.58;100.00;96215.31;647896;216;31630;-77
2022/03/25 00:49:24;;;;;;;2.37;2.17;;;1.90;1.40;;;2.63;100.00;96219.52;618863;222;31904;-76
2022/03/25 00:52:06;;;;;;;3.00;2.45;;;1.90;1.40;;;2.62;100.00;96221.96;648092;216;31590;-77
2022/03/25 00:54:48;;;;;;;3.33;2.30;;;1.90;1.40;;;2.49;100.00;96222.78;646300;216;31563;-77
2022/03/25 00:57:29;;;;;;;3.97;1.60;;;1.70;1.40;;;2.35;100.00;96222.88;645830;216;31581;-76
2022/03/25 01:00:11;;;;;;;3.80;2.55;;;1.60;1.40;;;2.31;100.00;96221.42;619723;222;31989;-77
2022/03/25 01:02:53;;;;;;;3.55;2.33;;;1.60;1.40;;;2.29;100.00;96219.84;647157;212;31554;-76
2022/03/25 01:05:34;;;;;;;2.53;2.13;;;1.60;1.40;;;2.36;100.00;96215.34;619642;222;32337;-77
2022/03/25 01:08:16;;;;;;;2.50;1.70;;;1.70;1.40;;;2.28;100.00;96222.23;647005;216;31617;-77
2022/03/25 01:10:58;;;;;;;3.97;2.53;;;1.60;1.40;;;2.33;100.00;96218.37;643318;214;31599;-77
2022/03/25 01:13:40;;;;;;;4.22;2.97;;;1.60;1.40;;;2.38;100.00;96219.83;647045;212;31621;-76
2022/03/25 01:16:21;;;;;;;2.10;1.60;;;1.70;1.40;;;2.40;100.00;96215.75;647791;216;31581;-77
2022/03/25 01:19:03;;;;;;;2.80;2.10;;;1.70;1.40;;;2.40;100.00;96213.44;646478;212;31566;-77
2022/03/25 01:21:45;;;;;;;4.53;2.60;;;1.70;1.40;;;2.37;100.00;96212.09;646553;216;31562;-75
2022/03/25 01:24:27;;;;;;;2.53;2.17;;;1.70;1.40;;;2.33;100.00;96207.31;648003;216;32200;-76
2022/03/25 01:27:09;;;;;;;1.98;1.85;;;1.70;1.40;;;2.36;100.00;96208.64;647365;216;31742;-77
2022/03/25 01:29:50;;;;;;;2.62;2.42;;;1.70;1.40;;;2.36;100.00;96205.87;646388;216;31652;-77
2022/03/25 01:32:35;;;;;;;2.95;2.45;;;1.70;1.40;;;2.34;100.00;96209.09;646951;216;42187;-76
2022/03/25 01:35:55;;;;;;;3.28;2.10;;;1.60;1.40;;;2.20;100.00;96202.50;646340;216;31959;-77
2022/03/25 01:38:37;;;;;;;2.60;2.40;;;1.50;1.40;;;2.13;100.00;96204.05;647895;216;31558;-77
2022/03/25 01:41:18;;;;;;;2.47;2.28;;;1.50;1.40;;;2.10;100.00;96205.91;646510;216;31573;-77
2022/03/25 01:44:01;;;;;;;3.25;1.95;;;1.40;1.40;;;2.11;100.00;96203.80;647265;216;31584;-77
2022/03/25 01:46:46;;;;;;;2.30;2.10;;;1.50;1.40;;;2.03;100.00;96206.78;642985;216;31613;-77
2022/03/25 01:49:28;;;;;;;2.60;1.80;;;1.40;1.40;;;2.06;100.00;96209.12;646502;212;41832;-77
2022/03/25 01:52:10;;;;;;;2.40;1.83;;;1.30;1.40;;;2.06;100.00;96208.05;619733;225;31860;-76
2022/03/25 01:54:51;;;;;;;3.90;2.40;;;1.50;1.40;;;2.07;100.00;96204.61;647446;216;31567;-76
2022/03/25 01:57:33;;;;;;;2.90;2.17;;;1.50;1.40;;;2.06;100.00;96202.06;619886;226;42520;-77
2022/03/25 02:00:16;;;;;;;2.85;2.03;;;1.50;1.40;;;2.16;100.00;96199.61;648180;213;31612;-77
2022/03/25 02:02:56;;;;;;;2.10;1.58;;;1.50;1.40;;;2.16;100.00;96201.01;621272;222;31852;-77
2022/03/25 02:05:38;;;;;;;2.00;1.73;;;1.40;1.40;;;2.06;100.00;96199.86;646167;212;42466;-77
2022/03/25 02:08:21;;;;;;;2.70;1.80;;;1.40;1.40;;;2.04;100.00;96196.75;647556;216;42273;-77
2022/03/25 02:11:04;;;;;;;3.00;2.80;;;1.40;1.40;;;2.07;100.00;96195.66;647260;216;31533;-77
2022/03/25 02:13:45;;;;;;;3.17;2.92;;;1.50;1.40;;;2.03;100.00;96198.66;646788;216;44081;-77
2022/03/25 02:16:42;;;;;;;3.22;1.90;;;1.40;1.40;;;1.96;100.00;96196.39;646221;216;31531;-76
2022/03/25 02:19:27;;;;;;;3.70;2.60;;;1.20;1.40;;;1.91;100.00;96193.02;616836;226;31882;-78
2022/03/25 02:22:09;;;;;;;4.32;2.62;;;1.30;1.40;;;2.02;100.00;96197.14;646163;216;42220;-76
2022/03/25 02:24:51;;;;;;;3.62;2.85;;;1.40;1.40;;;2.11;100.00;96194.84;646836;216;32162;-76
2022/03/25 02:27:36;;;;;;;3.28;2.80;;;1.60;1.40;;;2.20;100.00;96198.33;646263;216;31777;-76
2022/03/25 02:30:18;;;;;;;2.83;2.53;;;1.60;1.40;;;2.21;100.00;96192.30;647227;212;42195;-76
2022/03/25 02:33:02;;;;;;;2.33;1.70;;;1.70;1.40;;;2.23;100.00;96192.33;619459;222;42536;-76
2022/03/25 02:35:51;;;;;;;3.10;2.80;;;1.70;1.40;;;2.21;100.00;96195.99;646461;216;31964;-77
2022/03/25 02:38:32;;;;;;;2.30;1.90;;;1.70;1.40;;;2.23;100.00;96195.85;647260;216;31748;-76
2022/03/25 02:41:14;;;;;;;3.00;2.50;;;1.70;1.40;;;2.24;100.00;96196.89;647610;216;31552;-77
2022/03/25 02:46:33;;;;;;;4.03;1.92;;;1.80;1.40;;;2.29;100.00;96197.64;620575;222;31916;-76
2022/03/25 02:49:15;;;;;;;3.30;2.42;;;1.70;1.40;;;2.28;100.00;96201.37;646551;212;31596;-77
2022/03/25 02:51:56;;;;;;;2.42;1.75;;;1.70;1.40;;;2.24;100.00;96197.48;620011;222;42542;-76
2022/03/25 02:54:38;;;;;;;3.45;1.50;;;1.60;1.40;;;2.03;100.00;96199.44;619289;226;31962;-76
2022/03/25 02:57:20;;;;;;;3.10;2.20;;;1.40;1.40;;;2.07;100.00;96202.98;621000;222;32030;-77
2022/03/25 03:00:08;;;;;;;2.12;1.70;;;1.50;1.40;;;2.12;100.00;96196.31;618620;222;31942;-76
2022/03/25 03:02:48;;;;;;;1.73;1.62;;;1.50;1.40;;;2.12;100.00;96200.00;616525;229;31940;-76
2022/03/25 03:05:31;;;;;;;3.08;2.47;;;1.50;1.40;;;2.15;100.00;96203.12;645670;216;31564;-77
2022/03/25 03:08:13;;;;;;;2.75;2.10;;;1.60;1.40;;;2.08;100.00;96201.48;637652;212;42346;-76
2022/03/25 03:10:54;;;;;;;3.65;3.20;;;1.50;1.40;;;2.13;100.00;96199.72;646695;216;31555;-75
2022/03/25 03:13:36;;;;;;;3.33;2.42;;;1.60;1.40;;;2.15;100.00;96199.85;647322;216;31754;-76
2022/03/25 03:16:17;;;;;;;2.70;2.40;;;1.60;1.40;;;2.09;100.00;96203.80;645750;216;31588;-77
2022/03/25 03:18:59;;;;;;;2.20;2.00;;;1.60;1.40;;;2.22;100.00;96200.50;647507;216;31556;-77
2022/03/25 03:21:47;;;;;;;3.10;2.80;;;1.70;1.40;;;2.24;100.00;96203.67;646043;216;31569;-76
2022/03/25 03:24:44;;;;;;;2.83;2.58;;;1.60;1.40;;;2.23;100.00;96204.21;619418;223;32402;-76
2022/03/25 03:27:28;;;;;;;3.17;2.87;;;1.70;1.40;;;2.21;100.00;96202.78;643244;217;31568;-76
2022/03/25 03:30:11;;;;;;;2.45;2.05;;;1.60;1.40;;;2.17;100.00;96204.35;647677;212;31606;-76
2022/03/25 03:32:57;;;;;;;4.37;3.97;;;1.60;1.40;;;2.15;100.00;96198.05;646795;216;31617;-76
2022/03/25 03:35:52;;;;;;;4.12;1.83;;;1.60;1.40;;;2.12;100.00;96200.00;619501;226;31943;-77
2022/03/25 03:38:34;;;;;;;2.33;2.08;;;1.60;1.40;;;2.11;100.00;96200.69;647330;216;31586;-77
2022/03/25 03:41:16;;;;;;;3.00;2.70;;;1.50;1.40;;;2.09;100.00;96195.28;646878;212;31594;-76
2022/03/25 03:46:33;;;;;;;2.20;2.00;;;1.40;1.40;;;1.92;100.00;96194.44;645717;216;31516;-76
2022/03/25 03:49:14;;;;;;;1.87;1.75;;;1.30;1.40;;;1.83;100.00;96201.09;648531;216;42180;-77
2022/03/25 03:51:55;;;;;;;2.97;2.50;;;1.20;1.40;;;1.79;100.00;96196.71;647054;212;42443;-76
2022/03/25 03:54:38;;;;;;;2.30;2.17;;;1.10;1.40;;;1.65;100.00;96200.95;619600;222;31931;-77
2022/03/25 03:57:18;;;;;;;1.60;1.50;;;1.00;1.40;;;1.63;100.00;96207.52;646928;216;32041;-77
2022/03/25 04:00:00;;;;;;;2.83;2.62;;;0.90;1.40;;;1.57;100.00;96205.34;647634;212;31839;-77
2022/03/25 04:02:42;;;;;;;3.15;2.85;;;0.70;1.40;;;1.37;100.00;96200.06;646307;212;42186;-77
2022/03/25 04:05:27;;;;;;;3.65;1.77;;;0.60;1.40;;;1.25;100.00;96198.49;619416;222;32036;-75
2022/03/25 04:08:09;;;;;;;2.87;2.00;;;0.60;1.40;;;1.31;100.00;96201.19;611498;226;32235;-76
2022/03/25 04:10:52;;;;;;;1.80;1.62;;;0.60;1.40;;;1.29;100.00;96201.26;646266;214;31561;-76
2022/03/25 04:13:36;;;;;;;3.45;3.15;;;0.70;1.40;;;1.40;100.00;96201.24;647587;216;31681;-77
2022/03/25 04:16:18;;;;;;;1.70;1.60;;;0.80;1.40;;;1.49;100.00;96198.42;647422;216;31553;-76
2022/03/25 04:18:59;;;;;;;2.58;1.40;;;1.00;1.40;;;1.56;100.00;96196.70;643368;216;31622;-76
2022/03/25 04:21:41;;;;;;;3.60;3.03;;;1.00;1.40;;;1.58;100.00;96192.02;646665;212;31752;-77
2022/03/25 04:24:23;;;;;;;2.72;2.50;;;1.00;1.40;;;1.49;100.00;96194.74;646854;216;31583;-76
2022/03/25 04:27:04;;;;;;;2.60;2.33;;;0.90;1.40;;;1.46;100.00;96196.13;647163;212;31564;-76
2022/03/25 04:29:47;;;;;;;2.47;1.92;;;0.90;1.40;;;1.50;100.00;96191.96;619841;222;31890;-77
2022/03/25 04:32:44;;;;;;;3.33;2.08;;;0.90;1.40;;;1.38;100.00;96202.00;648357;216;31588;-77
2022/03/25 04:35:55;;;;;;;2.30;1.90;;;0.80;1.40;;;1.46;100.00;96196.17;648038;212;31579;-76
2022/03/25 04:38:47;;;;;;;2.70;1.80;;;1.00;1.40;;;1.48;100.00;96192.80;645149;216;31583;-75
2022/03/25 04:41:39;;;;;;;4.15;2.15;;;1.00;1.40;;;1.44;100.00;96192.75;651208;212;31669;-75
2022/03/25 04:44:29;;;;;;;2.90;2.70;;;0.90;1.40;;;1.52;100.00;96197.57;645780;216;31608;-76
2022/03/25 04:47:20;;;;;;;2.70;1.80;;;1.00;1.40;;;1.49;100.00;96192.11;645806;212;31573;-76
2022/03/25 04:50:05;;;;;;;3.17;2.10;;;1.00;1.40;;;1.50;100.00;96199.50;646769;212;32180;-76
2022/03/25 04:52:56;;;;;;;2.20;1.98;;;0.90;1.40;;;1.44;100.00;96198.03;650412;212;31558;-76
2022/03/25 04:55:38;;;;;;;2.97;2.20;;;0.90;1.40;;;1.28;100.00;96198.23;646893;216;31584;-76
2022/03/25 04:58:20;;;;;;;3.00;2.30;;;0.70;1.40;;;1.19;100.00;96197.22;647122;216;31500;-77
2022/03/25 05:01:02;;;;;;;2.95;2.05;;;0.60;1.40;;;1.17;100.00;96195.67;646310;216;31596;-76
2022/03/25 05:03:45;;;;;;;2.30;1.95;;;0.60;1.40;;;1.20;100.00;96200.06;649541;216;31576;-77
2022/03/25 05:06:30;;;;;;;3.42;1.75;;;0.70;1.40;;;1.27;100.00;96203.30;616719;222;32661;-75
2022/03/25 05:09:13;;;;;;;2.80;2.10;;;0.70;1.40;;;1.29;100.00;96203.92;648388;216;32247;-76
2022/03/25 05:11:54;;;;;;;2.50;2.10;;;0.70;1.40;;;1.25;100.00;96202.32;648364;216;42815;-76
2022/03/25 05:14:35;;;;;;;2.90;1.85;;;0.70;1.40;;;1.23;100.00;96203.44;647924;216;31605;-77
2022/03/25 05:17:27;;;;;;;1.90;1.40;;;0.70;1.40;;;1.33;100.00;96205.87;647225;212;32160;-75
2022/03/25 05:20:15;;;;;;;3.70;2.45;;;0.80;1.40;;;1.35;100.00;96207.44;646478;212;32121;-76
2022/03/25 05:23:03;;;;;;;3.25;2.00;;;0.80;1.40;;;1.48;100.00;96200.17;649246;216;31654;-75
2022/03/25 05:25:44;;;;;;;2.70;1.65;;;0.90;1.40;;;1.50;100.00;96206.45;648006;212;31495;-76
2022/03/25 05:28:31;;;;;;;3.25;2.97;;;0.80;1.40;;;1.43;100.00;96209.77;646791;212;31918;-77
2022/03/25 05:31:13;;;;;;;4.05;1.75;;;0.80;1.40;;;1.49;100.00;96210.12;646699;216;31673;-76
2022/03/25 05:35:51;;;;;;;4.40;2.97;;;0.90;1.40;;;1.55;100.00;96214.16;646755;212;31598;-74
2022/03/25 05:38:33;;;;;;;2.37;2.05;;;1.00;1.40;;;1.63;100.00;96213.51;647895;216;31578;-77
2022/03/25 05:41:14;;;;;;;2.60;2.40;;;1.10;1.40;;;1.72;100.00;96211.78;647155;216;42217;-76
2022/03/25 05:43:56;;;;;;;3.30;2.75;;;1.10;1.40;;;1.77;100.00;96215.92;648615;216;31514;-77
2022/03/25 05:46:44;;;;;;;1.70;1.60;;;1.10;1.40;;;1.78;100.00;96219.89;648935;216;31765;-76
2022/03/25 05:49:31;;;;;;;3.60;2.70;;;1.20;1.40;;;1.81;100.00;96225.85;650127;216;31478;-76
2022/03/25 05:52:13;;;;;;;3.45;1.80;;;1.30;1.40;;;1.90;100.00;96227.70;648817;216;31539;-77
2022/03/25 05:54:59;;;;;;;4.30;2.00;;;1.40;1.40;;;1.95;100.00;96224.73;622867;225;32032;-76
2022/03/25 05:57:47;;;;;;;4.32;2.10;;;1.40;1.40;;;2.01;100.00;96227.16;630943;222;32242;-77
2022/03/25 06:00:38;;;;;;;2.10;1.65;;;1.40;1.40;;;2.15;100.00;96228.31;620235;222;31892;-76
2022/03/25 06:03:19;;;;;;;2.92;2.62;;;1.40;1.40;;;2.24;100.00;96230.95;620223;226;32201;-77
2022/03/25 06:06:03;;;;;;;2.20;2.00;;;1.50;1.40;;;2.37;100.00;96231.58;645835;216;31598;-77
2022/03/25 06:08:43;;;;;;;2.75;2.35;;;1.70;1.40;;;2.46;100.00;96236.98;619462;226;32157;-77
2022/03/25 06:11:24;;;;;;;4.45;2.90;;;1.80;1.40;;;2.55;100.00;96234.13;646991;212;31591;-76
2022/03/25 06:14:06;;;;;;;3.80;2.80;;;1.90;1.40;;;2.72;100.00;96230.08;619750;222;43163;-77
2022/03/25 06:16:48;;;;;;;2.85;2.15;;;2.00;1.40;;;2.85;100.00;96235.22;646725;212;43003;-75
2022/03/25 06:19:36;;;;;;;3.40;1.87;;;2.20;1.40;;;3.01;100.00;96233.31;621413;222;42543;-77
2022/03/25 06:22:31;;;;;;;4.82;2.22;;;2.30;1.40;;;3.19;100.00;96229.09;648629;216;31636;-77
2022/03/25 06:25:23;;;;;;;4.62;2.97;;;2.40;1.40;;;3.33;100.00;96236.69;623285;222;32125;-76
2022/03/25 06:30:59;;;;;;;3.05;2.75;;;2.80;1.40;;;3.70;100.00;96236.56;623203;226;32154;-76
2022/03/25 06:35:54;;;;;;;3.65;2.72;;;3.00;1.40;;;4.05;100.00;96239.89;647320;216;32254;-76
2022/03/25 06:38:43;;;;;;;3.70;3.15;;;3.30;1.40;;;4.26;100.00;96241.59;649678;216;31553;-76
2022/03/25 06:41:27;;;;;;;1.85;1.65;;;3.60;1.40;;;4.39;100.00;96241.81;619752;222;31922;-76
2022/03/25 06:44:26;;;;;;;3.45;3.25;;;3.70;1.40;;;4.52;100.00;96242.56;649812;213;31495;-77
2022/03/25 06:47:07;;;;;;;1.17;1.13;;;3.80;1.40;;;4.61;100.00;96242.38;659977;215;23417;-76
2022/03/25 06:50:13;;;;;;;4.95;2.92;;;4.00;1.40;;;4.79;100.00;96237.22;622491;222;42593;-76
2022/03/25 06:53:05;;;;;;;4.45;2.95;;;4.20;1.40;;;5.01;100.00;96237.38;646877;216;31556;-77
2022/03/25 06:58:21;;;;;;;4.18;3.00;;;4.50;1.40;;;5.40;100.00;96244.05;645952;212;31589;-77
2022/03/25 07:01:17;;;;;;;4.93;2.55;;;4.70;1.40;;;5.59;100.00;96247.23;651952;212;31531;-78
2022/03/25 07:03:55;;;;;;;2.70;2.47;;;4.90;1.40;;;5.79;100.00;96245.05;639145;221;31691;-78
2022/03/25 07:06:57;;;;;;;5.90;2.90;;;5.20;1.40;;;5.97;100.00;96249.34;638747;215;31792;-78
2022/03/25 07:09:45;;;;;;;4.32;3.10;;;5.30;1.40;;;6.17;99.36;96250.74;645303;216;31580;-76
2022/03/25 07:12:37;;;;;;;3.30;2.70;;;5.60;1.40;;;6.34;97.65;96248.27;643311;215;31575;-79
2022/03/25 07:15:20;;;;;;;7.15;3.20;;;5.70;1.40;;;6.57;98.13;96250.28;647019;215;32007;-77
2022/03/25 07:18:05;;;;;;;3.80;3.15;;;6.00;1.40;;;6.87;97.52;96251.63;646796;212;32234;-77
2022/03/25 07:31:28;;;;;;;3.83;2.85;;;6.90;1.40;;;7.84;88.51;96259.77;620625;226;31903;-90
2022/03/25 07:35:51;;;;;;;6.28;3.85;;;7.20;1.40;;;8.13;85.69;96257.08;620754;222;31877;-78
2022/03/25 07:49:34;;;;;;;5.18;3.42;;;8.00;1.40;;;8.94;78.81;96253.66;652521;212;31724;-79
2022/03/25 07:52:22;;;;;;;5.40;3.85;;;8.30;1.40;;;9.24;72.82;96251.44;648084;212;31592;-78
2022/03/25 07:55:09;;;;;;;5.40;3.60;;;8.60;1.40;;;9.57;73.02;96248.97;646962;216;31628;-79
2022/03/25 07:57:57;;;;;;;7.60;5.20;;;8.80;1.40;;;9.60;66.20;96251.39;647514;216;32299;-78
2022/03/25 08:00:42;;;;;;;8.80;5.68;;;8.70;1.40;;;9.82;66.44;96256.77;648104;216;31529;-78
2022/03/25 08:03:22;;;;;;;7.15;4.10;;;9.00;1.40;;;10.11;67.92;96249.92;620481;222;32055;-79
2022/03/25 08:06:03;;;;;;;7.03;5.00;;;9.10;1.40;;;10.18;63.38;96252.20;647616;216;32236;-77
2022/03/25 08:08:47;;;;;;;6.85;4.87;;;9.30;1.40;;;10.34;63.45;96249.86;619284;226;32074;-78
2022/03/25 08:11:27;;;;;;;7.28;4.60;;;9.40;1.40;;;10.41;62.83;96251.48;648033;216;42400;-79
2022/03/25 08:14:08;;;;;;;7.00;4.70;;;9.50;1.40;;;10.58;60.42;96255.17;648127;212;31614;-79
2022/03/25 08:16:50;;;;;;;5.90;4.40;;;9.60;1.40;;;10.83;64.44;96257.43;642778;215;31567;-78
2022/03/25 08:19:32;;;;;;;10.38;5.32;;;9.70;1.40;;;11.15;62.86;96255.56;647209;216;31545;-77
2022/03/25 08:22:14;;;;;;;6.20;4.30;;;9.90;1.40;;;11.39;62.85;96259.52;647315;216;32747;-76
2022/03/25 08:27:50;;;;;;;7.50;5.28;;;10.60;1.40;;;11.72;59.75;96256.61;646917;216;31547;-77
2022/03/25 08:30:32;;;;;;;7.47;5.10;;;10.40;1.40;;;11.72;57.78;96256.88;647186;216;31641;-77
2022/03/25 08:35:57;;;;;;;5.55;4.32;;;10.80;1.40;;;12.10;56.98;96256.93;646882;212;31508;-78
2022/03/25 08:38:44;;;;;;;6.62;4.70;;;11.00;1.40;;;12.13;56.01;96256.72;646154;216;31615;-77
2022/03/25 08:41:26;;;;;;;7.40;5.37;;;11.00;1.40;;;12.30;55.08;96257.64;647326;216;31581;-78
2022/03/25 08:44:08;;;;;;;7.37;4.60;;;11.20;1.40;;;12.31;54.10;96257.50;648141;216;31529;-77
2022/03/25 08:46:50;;;;;;;7.90;5.30;;;11.40;1.40;;;12.69;53.31;96263.58;619814;222;31885;-78
2022/03/25 08:49:34;;;;;;;9.90;6.03;;;11.60;1.40;;;13.19;54.85;96261.08;618420;226;42587;-78
2022/03/25 08:52:17;;;;;;;8.97;5.77;;;12.20;1.40;;;13.66;55.98;96257.91;620225;226;42617;-79
2022/03/25 08:54:58;;;;;;;7.27;4.70;;;12.90;1.40;;;14.25;54.30;96258.58;619684;222;32296;-79
2022/03/25 08:57:39;;;;;;;7.30;5.72;;;13.20;1.40;;;13.88;52.11;96255.98;647282;216;42163;-78
2022/03/25 09:00:21;;;;;;;6.80;5.10;;;13.20;1.40;;;14.69;54.21;96252.66;647493;216;31570;-78
2022/03/25 09:03:05;;;;;;;9.57;5.83;;;13.70;1.40;;;15.07;49.90;96252.80;618637;226;31930;-79
2022/03/25 09:05:46;;;;;;;10.63;5.90;;;14.20;1.40;;;16.61;49.76;96252.52;618681;226;34861;-77
2022/03/25 09:08:27;;;;;;;5.90;5.30;;;16.80;1.40;;;18.05;42.40;96253.83;646099;216;42300;-77
2022/03/25 09:11:09;;;;;;;8.20;5.30;;;18.30;1.40;;;19.15;45.21;96242.04;647086;212;31551;-76
2022/03/25 09:13:52;;;;;;;11.25;7.15;;;20.20;1.40;;;21.83;41.54;96247.23;646729;216;31677;-77
2022/03/25 09:16:34;;;;;;;10.95;7.12;;;21.10;1.40;;;22.77;36.36;96240.79;643018;214;31546;-77
2022/03/25 09:19:17;;;;;;;11.23;6.70;;;21.60;1.40;;;21.67;34.21;96242.84;618973;226;32037;-77
2022/03/25 09:21:59;;;;;;;12.00;7.28;;;21.20;1.40;;;24.49;36.27;96236.77;646785;212;32200;-77
2022/03/25 09:24:40;;;;;;;11.27;7.90;;;22.20;1.40;;;26.04;33.84;96239.74;646651;212;43653;-77
2022/03/25 09:27:22;;;;;;;8.88;6.95;;;23.50;1.40;;;26.15;30.21;96237.92;619307;222;32187;-77
2022/03/25 09:30:06;;;;;;;9.63;7.37;;;23.30;99.90;;;24.82;29.94;96238.10;619265;225;31887;-77
2022/03/25 09:32:48;;;;;;;9.40;7.30;;;22.90;1.40;;;27.90;34.85;96227.05;652962;216;24617;-77
2022/03/25 09:35:51;;;;;;;9.13;7.95;;;24.00;1.40;;;26.59;28.21;96240.76;619845;224;32095;-77
2022/03/25 09:38:34;;;;;;;10.35;7.78;;;23.80;99.90;;;26.89;28.57;96235.86;618887;222;32036;-76
2022/03/25 09:41:16;;;;;;;10.55;7.85;;;23.80;99.90;;;27.94;29.39;96236.13;620218;226;31901;-77
2022/03/25 09:43:57;;;;;;;12.35;8.20;;;24.10;99.90;;;29.08;27.53;96230.84;647491;216;42864;-77
2022/03/25 09:46:42;;;;;;;9.25;7.95;;;23.50;99.90;;;28.55;28.80;96231.47;618643;226;31915;-77
2022/03/25 09:49:21;;;;;;;11.50;8.75;;;23.80;99.90;;;29.39;27.00;96231.14;646421;216;31525;-76
2022/03/25 09:52:04;;;;;;;10.02;8.20;;;24.70;99.90;;;29.00;28.39;96229.53;647243;216;31582;-77
2022/03/25 09:54:47;;;;;;;9.63;8.60;;;25.00;99.90;;;30.50;24.23;96228.70;647418;216;31634;-78
2022/03/25 09:57:29;;;;;;;12.07;8.85;;;25.00;99.90;;;30.41;24.55;96228.24;648783;216;31664;-77
2022/03/25 10:00:16;;;;;;;10.32;7.80;;;24.90;99.90;;;29.02;24.17;96231.68;647421;212;31613;-77
2022/03/25 10:02:59;;;;;;;12.52;8.57;;;24.10;99.90;;;29.26;25.21;96227.85;620503;226;32056;-77
2022/03/25 10:05:53;;;;;;;10.00;7.70;;;25.20;99.90;;;30.92;26.48;96219.76;647008;216;32059;-77
2022/03/25 10:11:24;;;;;;;10.80;8.27;;;25.40;99.90;;;30.74;22.45;96221.63;645134;216;32051;-77
2022/03/25 10:14:15;;;;;;;11.23;9.13;;;25.60;99.90;;;31.23;24.24;96219.20;619779;226;32112;-77
2022/03/25 10:16:59;;;;;;;12.27;8.27;;;26.20;99.90;;;31.90;22.92;96218.25;647006;216;31563;-77
2022/03/25 10:19:56;;;;;;;11.88;9.50;;;25.90;99.90;;;32.29;22.16;96214.16;646652;216;42318;-77
2022/03/25 10:22:38;;;;;;;9.77;8.15;;;26.70;99.90;;;29.99;21.93;96215.67;646701;215;31733;-77
2022/03/25 10:25:34;;;;;;;10.98;8.90;;;25.80;99.90;;;28.95;23.78;96222.44;646650;215;31615;-77
2022/03/25 10:28:27;;;;;;;10.38;8.15;;;25.40;99.90;;;31.78;23.11;96214.36;619651;222;42610;-77
2022/03/25 10:31:13;;;;;;;10.75;7.97;;;25.50;99.90;;;31.85;21.99;96213.51;646517;212;31661;-78
2022/03/25 10:35:55;;;;;;;12.13;8.93;;;25.40;99.90;;;27.78;23.45;96218.19;648218;216;32531;-77
2022/03/25 10:38:44;;;;;;;16.92;9.43;;;24.90;99.90;;;27.50;24.81;96217.41;619375;222;42658;-77
2022/03/25 10:41:40;;;;;;;12.27;9.60;;;24.40;99.90;;;30.37;23.44;96205.55;648712;212;31623;-77
2022/03/25 10:44:37;;;;;;;12.95;10.50;;;25.40;99.90;;;30.19;23.27;96206.77;647111;216;31648;-78
2022/03/25 10:47:26;;;;;;;14.35;9.50;;;26.20;99.90;;;31.21;23.04;96208.31;648867;212;32207;-79
2022/03/25 10:50:12;;;;;;;10.55;8.43;;;26.50;99.90;;;32.16;21.73;96211.02;647127;212;31668;-78
2022/03/25 10:52:59;;;;;;;12.60;8.85;;;27.10;99.90;;;30.72;22.74;96208.79;648029;212;31794;-78
2022/03/25 10:55:42;;;;;;;12.33;9.83;;;26.70;99.90;;;32.37;21.67;96204.08;619075;222;43166;-77
2022/03/25 10:58:27;;;;;;;12.23;9.85;;;26.80;99.90;;;32.09;21.98;96203.76;647995;216;31582;-77
2022/03/25 11:01:08;;;;;;;12.00;10.13;;;27.10;99.90;;;34.39;19.97;96196.29;619426;222;32005;-77
2022/03/25 11:03:54;;;;;;;13.90;9.82;;;27.00;99.90;;;33.59;20.25;96200.03;646834;212;31633;-77
2022/03/25 11:06:37;;;;;;;9.80;8.05;;;27.50;99.90;;;34.46;19.41;96195.08;617806;226;42752;-77
2022/03/25 11:09:17;;;;;;;9.80;8.80;;;27.20;1.40;;;33.95;19.53;96193.77;618960;226;31947;-77
2022/03/25 11:11:59;;;;;;;10.33;8.13;;;26.60;99.90;;;34.77;19.58;96186.18;647070;212;31623;-77
2022/03/25 11:14:40;;;;;;;14.02;10.07;;;26.60;99.90;;;34.15;18.86;96185.49;620474;226;32140;-77
2022/03/25 11:17:22;;;;;;;10.23;7.72;;;27.10;99.90;;;33.53;18.18;96183.86;619427;226;32159;-77
2022/03/25 11:20:09;;;;;;;12.80;10.02;;;26.60;99.90;;;32.93;18.86;96184.83;619949;222;31930;-77
2022/03/25 11:23:09;;;;;;;11.05;9.00;;;26.70;99.90;;;33.81;19.31;96182.44;647389;216;31640;-77
2022/03/25 11:25:50;;;;;;;11.50;8.65;;;27.00;99.90;;;33.79;18.80;96178.52;645746;216;31625;-78
2022/03/25 11:28:32;;;;;;;13.45;9.07;;;27.20;99.90;;;29.85;21.07;96184.89;619154;222;31969;-77
2022/03/25 11:31:14;;;;;;;12.68;9.02;;;26.00;99.90;;;33.57;19.51;96178.74;619028;226;32007;-77
2022/03/25 11:35:51;;;;;;;15.00;9.40;;;27.00;99.90;;;32.58;20.17;96175.02;648342;212;31609;-77
2022/03/25 11:38:33;;;;;;;12.23;9.82;;;27.00;99.90;;;33.85;19.32;96168.59;647878;216;31623;-77
2022/03/25 11:41:22;;;;;;;12.02;8.98;;;27.20;99.90;;;34.80;18.72;96167.22;619341;225;32075;-78
2022/03/25 11:44:24;;;;;;;11.23;8.88;;;27.50;99.90;;;32.84;19.58;96170.48;619287;226;32499;-78
2022/03/25 11:49:49;;;;;;;11.38;8.25;;;27.20;67.70;;;34.63;18.53;96159.45;616386;226;42711;-79
2022/03/25 11:52:36;;;;;;;14.25;9.40;;;27.40;99.90;;;33.16;18.18;96160.09;647032;216;31785;-77
2022/03/25 11:55:18;;;;;;;10.55;8.48;;;26.60;99.90;;;34.50;18.08;96154.81;646399;216;32167;-78
2022/03/25 11:58:14;;;;;;;10.10;8.80;;;28.00;99.90;;;34.33;17.37;96152.41;646646;216;31599;-78
2022/03/25 12:01:19;;;;;;;11.05;9.07;;;27.60;99.90;;;35.10;18.22;96147.12;632801;222;31760;-76
2022/03/25 12:04:01;;;;;;;10.30;8.23;;;27.10;99.90;;;35.05;18.10;96147.90;648214;212;31576;-78
2022/03/25 12:06:59;;;;;;;9.52;8.52;;;27.60;99.90;;;33.87;17.54;96145.69;618254;226;32136;-77
2022/03/25 12:09:40;;;;;;;8.45;7.55;;;26.90;99.90;;;34.85;17.28;96143.84;645612;212;31716;-77
2022/03/25 12:12:27;;;;;;;9.63;8.30;;;26.80;99.90;;;34.87;16.75;96144.34;620233;222;31865;-77
2022/03/25 12:15:11;;;;;;;9.93;7.80;;;28.40;99.90;;;34.70;16.92;96138.33;633696;217;32442;-78
2022/03/25 12:18:12;;;;;;;10.18;7.90;;;27.80;99.90;;;35.13;17.66;96140.21;645945;212;31791;-76
2022/03/25 12:20:56;;;;;;;9.93;8.00;;;27.00;99.90;;;35.21;17.19;96141.63;620639;226;31932;-78
2022/03/25 12:23:38;;;;;;;9.05;7.78;;;27.20;99.90;;;32.82;17.34;96142.51;647869;216;31634;-78
2022/03/25 12:26:26;;;;;;;10.38;8.82;;;26.00;99.90;;;35.62;16.85;96133.86;618857;226;32039;-78
2022/03/25 12:29:08;;;;;;;10.70;8.30;;;27.00;99.90;;;34.48;17.59;96131.67;619863;226;31930;-77
2022/03/25 12:31:50;;;;;;;9.48;7.68;;;28.00;99.90;;;34.42;16.66;96123.12;646844;216;31660;-77
2022/03/25 12:35:51;;;;;;;9.98;7.85;;;26.70;99.90;;;35.89;16.69;96124.23;619597;222;32108;-77
2022/03/25 12:38:33;;;;;;;11.45;9.32;;;28.30;99.90;;;35.55;16.80;96118.73;646261;216;31625;-77